createdAt,value
2022-08-12T00:03:47.274Z,35.66
2022-08-12T00:09:27.777Z,35.68
2022-08-12T00:15:08.212Z,35.79
2022-08-12T00:20:48.719Z,35.76
2022-08-12T00:26:32.783Z,35.86
2022-08-12T00:32:12.856Z,35.74
2022-08-12T00:38:13.999Z,36.00
2022-08-12T00:43:36.772Z,35.82
2022-08-12T00:49:00.045Z,35.74
2022-08-12T00:54:21.763Z,35.60
2022-08-12T00:59:49.231Z,35.75
2022-08-12T01:05:33.019Z,35.50
2022-08-12T01:11:14.648Z,35.88
2022-08-12T01:16:36.604Z,35.80
2022-08-12T01:22:26.614Z,35.70
2022-08-12T01:27:50.618Z,35.95
2022-08-12T01:33:18.770Z,35.40
2022-08-12T01:38:43.943Z,35.75
2022-08-12T01:44:06.911Z,35.49
2022-08-12T01:49:40.513Z,35.71
2022-08-12T01:55:03.169Z,36.00
2022-08-12T02:00:43.434Z,36.17
2022-08-12T02:06:36.430Z,35.42
2022-08-12T02:12:03.059Z,35.77
2022-08-12T02:18:03.391Z,35.83
2022-08-12T02:23:28.231Z,35.80
2022-08-12T02:28:52.381Z,35.78
2022-08-12T02:34:16.759Z,36.07
2022-08-12T02:39:45.352Z,35.54
2022-08-12T02:45:09.284Z,35.58
2022-08-12T02:50:34.755Z,35.56
2022-08-12T02:55:59.978Z,35.73
2022-08-12T03:01:28.693Z,35.69
2022-08-12T03:07:04.883Z,35.52
2022-08-12T03:12:34.004Z,35.20
2022-08-12T03:18:25.510Z,35.97
2022-08-12T03:23:46.865Z,35.57
2022-08-12T03:29:09.083Z,35.66
2022-08-12T03:34:35.488Z,35.61
2022-08-12T03:39:57.267Z,35.59
2022-08-12T03:45:52.717Z,35.67
2022-08-12T03:51:34.163Z,35.45
2022-08-12T03:57:14.933Z,35.74
2022-08-12T04:02:40.684Z,35.60
2022-08-12T04:08:03.675Z,35.70
2022-08-12T04:13:25.768Z,35.77
2022-08-12T04:18:48.078Z,35.62
2022-08-12T04:24:10.815Z,35.61
2022-08-12T04:30:16.726Z,35.41
2022-08-12T04:35:17.263Z,35.83
2022-08-12T04:40:39.753Z,35.35
2022-08-12T04:46:02.973Z,35.65
2022-08-12T04:51:25.870Z,35.56
2022-08-12T04:57:03.925Z,35.72
2022-08-12T05:02:27.188Z,35.82
2022-08-12T05:07:54.148Z,35.64
2022-08-12T05:13:19.492Z,35.78
2022-08-12T05:18:45.795Z,35.87
2022-08-12T05:24:09.527Z,35.92
2022-08-12T05:30:08.051Z,35.49
2022-08-12T05:35:13.517Z,36.14
2022-08-12T05:40:35.331Z,35.85
2022-08-12T05:45:57.077Z,35.94
2022-08-12T05:51:18.993Z,36.10
2022-08-12T05:56:43.753Z,35.49
2022-08-12T06:02:10.885Z,35.12
2022-08-12T06:08:01.972Z,34.77
2022-08-12T06:13:28.186Z,35.21
2022-08-12T06:19:04.970Z,34.79
2022-08-12T06:24:28.870Z,34.68
2022-08-12T06:30:08.821Z,34.77
2022-08-12T06:35:48.968Z,35.21
2022-08-12T06:41:30.989Z,34.98
2022-08-12T06:46:52.896Z,34.84
2022-08-12T06:52:21.709Z,34.88
2022-08-12T06:58:10.117Z,34.78
2022-08-12T07:03:33.010Z,34.77
2022-08-12T07:08:54.752Z,34.83
2022-08-12T07:14:16.514Z,34.79
2022-08-12T07:19:40.539Z,35.03
2022-08-12T07:25:25.814Z,34.87
2022-08-12T07:30:51.412Z,34.87
2022-08-12T07:36:14.759Z,35.00
2022-08-12T07:41:36.458Z,34.82
2022-08-12T07:46:58.182Z,34.98
2022-08-12T07:52:19.883Z,34.99
2022-08-12T07:58:00.882Z,35.06
2022-08-12T08:03:23.025Z,35.11
2022-08-12T08:08:45.209Z,35.06
2022-08-12T08:14:08.865Z,35.06
2022-08-12T08:19:32.232Z,35.14
2022-08-12T08:24:57.779Z,35.24
2022-08-12T08:30:19.669Z,34.98
2022-08-12T08:35:47.878Z,35.13
2022-08-12T08:42:17.446Z,35.21
2022-08-12T08:47:11.868Z,35.31
2022-08-12T08:52:45.673Z,35.54
2022-08-12T08:58:09.005Z,35.44
2022-08-12T09:05:09.281Z,35.35
2022-08-12T09:09:14.688Z,35.66
2022-08-12T09:14:36.467Z,35.52
2022-08-12T09:19:58.936Z,35.46
2022-08-12T09:25:33.394Z,35.41
2022-08-12T09:30:59.039Z,35.42
2022-08-12T09:36:31.112Z,35.59
2022-08-12T09:42:40.356Z,35.46
2022-08-12T09:48:08.973Z,35.56
2022-08-12T09:53:38.806Z,35.44
2022-08-12T09:59:02.153Z,35.46
2022-08-12T10:04:25.595Z,35.81
2022-08-12T10:09:57.093Z,35.70
2022-08-12T10:16:02.926Z,35.27
2022-08-12T10:21:08.865Z,34.92
2022-08-12T10:26:50.428Z,35.07
2022-08-12T10:32:42.885Z,35.00
2022-08-12T10:38:34.061Z,34.93
2022-08-12T10:43:54.943Z,35.23
2022-08-12T10:50:03.008Z,34.76
2022-08-12T10:55:02.279Z,34.73
2022-08-12T11:00:31.701Z,34.51
2022-08-12T11:07:10.203Z,34.18
2022-08-12T11:12:36.587Z,34.02
2022-08-12T11:17:53.403Z,33.65
2022-08-12T11:23:25.994Z,34.00
2022-08-12T11:28:59.082Z,33.69
2022-08-12T11:34:52.776Z,34.05
2022-08-12T11:45:52.996Z,33.64
2022-08-12T11:51:15.243Z,33.50
2022-08-12T11:56:38.615Z,33.69
2022-08-12T12:02:05.121Z,33.46
2022-08-12T12:08:36.630Z,33.18
2022-08-12T12:13:11.728Z,33.30
2022-08-12T12:18:45.533Z,33.46
2022-08-12T12:24:07.267Z,32.92
2022-08-12T12:30:19.123Z,33.32
2022-08-12T12:36:06.028Z,33.03
2022-08-12T12:40:54.883Z,33.05
2022-08-12T12:46:18.187Z,33.46
2022-08-12T12:51:55.176Z,33.13
2022-08-12T12:57:36.150Z,33.17
2022-08-12T13:03:04.533Z,33.07
2022-08-12T13:08:36.033Z,32.90
2022-08-12T13:14:11.964Z,32.59
2022-08-12T13:19:44.472Z,32.83
2022-08-12T13:25:10.140Z,32.53
2022-08-12T13:30:33.342Z,32.86
2022-08-12T13:36:05.134Z,32.44
2022-08-12T13:41:36.679Z,32.27
2022-08-12T13:47:00.443Z,32.44
2022-08-12T13:52:23.685Z,32.38
2022-08-12T13:57:47.247Z,32.20
2022-08-12T14:03:12.672Z,32.17
2022-08-12T14:08:35.042Z,32.29
2022-08-12T14:14:03.717Z,32.00
2022-08-12T14:19:32.915Z,31.98
2022-08-12T14:24:59.000Z,31.92
2022-08-12T14:30:24.182Z,31.82
2022-08-12T14:35:52.625Z,32.04
2022-08-12T14:41:20.821Z,31.88
2022-08-12T14:46:44.701Z,31.78
2022-08-12T14:53:11.426Z,31.96
2022-08-12T14:57:57.936Z,31.96
2022-08-12T15:03:25.961Z,32.03
2022-08-12T15:09:11.883Z,31.85
2022-08-12T15:14:35.373Z,31.88
2022-08-12T15:20:28.634Z,32.04
2022-08-12T15:25:47.415Z,32.38
2022-08-12T15:31:27.398Z,31.91
2022-08-12T15:36:55.122Z,32.20
2022-08-12T15:42:17.586Z,32.19
2022-08-12T15:47:47.984Z,32.16
2022-08-12T15:53:15.569Z,32.31
2022-08-12T15:58:41.511Z,32.62
2022-08-12T16:04:05.281Z,32.36
2022-08-12T16:09:55.866Z,32.44
2022-08-12T16:15:11.294Z,32.07
2022-08-12T16:20:34.989Z,32.01
2022-08-12T16:26:05.474Z,32.66
2022-08-12T16:31:28.997Z,32.46
2022-08-12T16:36:51.697Z,32.11
2022-08-12T16:42:15.707Z,32.69
2022-08-12T16:47:58.283Z,32.87
2022-08-12T16:53:22.736Z,32.55
2022-08-12T16:58:53.690Z,32.68
2022-08-12T17:04:17.838Z,32.50
2022-08-12T17:09:52.236Z,33.18
2022-08-12T17:15:50.295Z,33.14
2022-08-12T17:20:58.681Z,32.75
2022-08-12T17:26:28.405Z,33.31
2022-08-12T17:32:01.597Z,32.96
2022-08-12T17:37:23.910Z,33.61
2022-08-12T17:42:47.759Z,33.55
2022-08-12T17:48:11.972Z,33.57
2022-08-12T17:54:05.827Z,33.66
2022-08-12T17:59:48.682Z,33.33
2022-08-12T18:05:10.721Z,33.57
2022-08-12T18:10:53.020Z,33.29
2022-08-12T18:16:23.220Z,33.45
2022-08-12T18:22:01.746Z,33.35
2022-08-12T18:27:30.011Z,33.17
2022-08-12T18:33:05.392Z,33.33
2022-08-12T18:38:28.163Z,33.25
2022-08-12T18:44:10.070Z,33.48
2022-08-12T18:49:38.872Z,33.44
2022-08-12T18:55:08.181Z,33.54
2022-08-12T19:00:30.729Z,33.49
2022-08-12T19:06:01.064Z,33.84
2022-08-12T19:11:43.896Z,33.53
2022-08-12T19:17:11.445Z,33.70
2022-08-12T19:22:35.112Z,33.66
2022-08-12T19:27:57.911Z,33.85
2022-08-12T19:33:23.790Z,33.53
2022-08-12T19:38:56.888Z,33.92
2022-08-12T19:44:21.555Z,33.55
2022-08-12T19:49:53.055Z,33.48
2022-08-12T19:55:21.386Z,33.77
2022-08-12T20:00:43.923Z,33.69
2022-08-12T20:06:21.751Z,33.79
2022-08-12T20:12:14.178Z,33.39
2022-08-12T20:17:36.381Z,33.58
2022-08-12T20:23:09.853Z,33.63
2022-08-12T20:28:31.553Z,33.73
2022-08-12T20:33:56.813Z,33.47
2022-08-12T20:39:52.730Z,33.66
2022-08-12T20:45:03.100Z,33.59
2022-08-12T20:50:27.562Z,33.32
2022-08-12T20:55:56.764Z,33.58
2022-08-12T21:01:28.942Z,33.53
2022-08-12T21:07:08.424Z,33.60
2022-08-12T21:12:34.247Z,33.50
2022-08-12T21:18:08.970Z,33.81
2022-08-12T21:23:38.410Z,33.78
2022-08-12T21:29:10.531Z,33.54
2022-08-12T21:34:32.274Z,33.66
2022-08-12T21:39:56.295Z,33.75
2022-08-12T21:45:46.568Z,33.62
2022-08-12T21:51:00.202Z,33.30
2022-08-12T21:56:33.936Z,33.29
2022-08-12T22:01:56.522Z,33.95
2022-08-12T22:07:18.641Z,33.92
2022-08-12T22:12:40.857Z,34.27
2022-08-12T22:18:07.587Z,34.12
2022-08-12T22:23:51.564Z,34.72
2022-08-12T22:29:36.808Z,34.65
2022-08-12T22:35:22.371Z,34.53
2022-08-12T22:41:00.731Z,34.61
2022-08-12T22:46:23.196Z,34.63
2022-08-12T22:52:00.779Z,34.98
2022-08-12T22:57:53.555Z,35.01
2022-08-12T23:03:46.738Z,35.00
2022-08-12T23:08:52.424Z,34.85
2022-08-12T23:14:15.219Z,34.76
2022-08-12T23:19:38.444Z,34.83
2022-08-12T23:25:18.869Z,34.97
2022-08-12T23:30:43.073Z,34.85
2022-08-12T23:36:05.210Z,34.87
2022-08-12T23:41:29.394Z,34.74
2022-08-12T23:47:11.774Z,34.92
2022-08-12T23:52:34.983Z,35.00
2022-08-12T23:58:22.650Z,34.83
